Time;durP1;ratioP1;P1;durP2;ratioP2;P2;SDS_P1;SDS_P2;PMS_P1;PMS_P2;Temp;Humidity;BMP_temperature;BMP_pressure;BME280_temperature;BME280_humidity;BME280_pressure;Samples;Min_cycle;Max_cycle;Signal;HPM_P1;HPM_P2
2021/01/04 00:00:51;;;;;;;1.12;1.05;;;2.40;99.90;;;;;;4383867;32;20121;-73
2021/01/04 00:03:56;;;;;;;0.45;0.45;;;2.40;99.90;;;;;;4385020;32;20071;-73
2021/01/04 00:06:33;;;;;;;0.70;0.70;;;2.30;99.90;;;;;;4372057;32;20503;-75
2021/01/04 00:09:24;;;;;;;0.40;0.40;;;2.30;99.90;;;;;;4400248;32;20066;-74
2021/01/04 00:12:14;;;;;;;0.40;0.40;;;2.30;99.90;;;;;;4388779;32;20114;-74
2021/01/04 00:15:04;;;;;;;0.40;0.40;;;2.40;99.90;;;;;;4389966;32;20500;-73
2021/01/04 00:17:49;;;;;;;1.53;1.43;;;2.40;99.90;;;;;;4385826;32;20512;-75
2021/01/04 00:20:28;;;;;;;0.30;0.30;;;2.40;99.90;;;;;;4384847;32;20047;-75
2021/01/04 00:23:06;;;;;;;1.10;0.93;;;2.40;99.90;;;;;;4383820;32;20118;-75
2021/01/04 00:25:45;;;;;;;0.40;0.40;;;2.40;99.90;;;;;;4384459;32;20129;-74
2021/01/04 00:28:15;;;;;;;0.73;0.73;;;2.40;99.90;;;;;;4384376;32;20067;-75
2021/01/04 00:30:47;;;;;;;0.52;0.52;;;2.40;99.90;;;;;;4385063;32;20410;-73
2021/01/04 00:33:25;;;;;;;0.40;0.40;;;2.40;99.90;;;;;;4385172;32;20082;-73
2021/01/04 00:35:55;;;;;;;0.43;0.43;;;2.40;99.90;;;;;;4384387;32;20523;-73
2021/01/04 00:39:01;;;;;;;2.28;0.82;;;2.40;99.90;;;;;;4385234;32;20074;-74
2021/01/04 00:41:54;;;;;;;2.05;1.23;;;2.50;99.90;;;;;;4364193;32;20059;-75
2021/01/04 00:44:26;;;;;;;0.30;0.30;;;2.50;99.90;;;;;;4372561;32;20063;-75
2021/01/04 00:46:59;;;;;;;0.52;0.52;;;2.40;99.90;;;;;;4397594;32;20074;-75
2021/01/04 00:49:30;;;;;;;0.60;0.60;;;2.30;99.90;;;;;;4399396;32;20070;-74
2021/01/04 00:52:20;;;;;;;0.30;0.30;;;2.30;99.90;;;;;;4398332;32;20164;-74
2021/01/04 00:55:15;;;;;;;0.52;0.52;;;2.40;99.90;;;;;;4373116;32;20062;-75
2021/01/04 00:58:01;;;;;;;0.50;0.50;;;2.40;99.90;;;;;;4373546;32;20388;-74
2021/01/04 01:00:32;;;;;;;0.40;0.40;;;2.40;99.90;;;;;;4384107;32;20070;-75
2021/01/04 01:03:28;;;;;;;1.08;1.02;;;2.40;99.90;;;;;;4385110;32;20472;-73
2021/01/04 01:06:02;;;;;;;2.70;0.93;;;2.40;99.90;;;;;;4376615;32;20058;-74
2021/01/04 01:08:33;;;;;;;0.50;0.50;;;2.40;99.90;;;;;;4399820;32;20058;-74
2021/01/04 01:11:05;;;;;;;0.45;0.45;;;2.40;99.90;;;;;;4394726;32;20055;-75
2021/01/04 01:14:11;;;;;;;0.75;0.75;;;2.40;99.90;;;;;;4383991;32;20079;-75
2021/01/04 01:17:01;;;;;;;0.68;0.68;;;2.30;99.90;;;;;;4364035;32;20062;-74
2021/01/04 01:19:44;;;;;;;0.65;0.65;;;2.30;99.90;;;;;;4373580;32;20073;-75
2021/01/04 01:22:14;;;;;;;3.00;2.05;;;2.40;99.90;;;;;;4383502;32;20062;-74
2021/01/04 01:24:41;;;;;;;0.50;0.50;;;2.40;99.90;;;;;;4383431;32;20136;-75
2021/01/04 01:27:42;;;;;;;2.28;1.67;;;2.50;99.90;;;;;;4383783;32;20588;-75
2021/01/04 01:30:48;;;;;;;0.40;0.40;;;2.40;99.90;;;;;;4372765;32;20095;-75
2021/01/04 01:33:33;;;;;;;0.47;0.47;;;2.40;99.90;;;;;;4364107;32;20085;-75
2021/01/04 01:36:03;;;;;;;0.30;0.30;;;2.40;99.90;;;;;;4383790;32;20156;-74
2021/01/04 01:38:51;;;;;;;0.95;0.77;;;2.50;99.90;;;;;;4383764;32;20051;-74
2021/01/04 01:41:56;;;;;;;0.40;0.40;;;2.40;99.90;;;;;;4371688;32;20090;-74
2021/01/04 01:44:28;;;;;;;0.62;0.62;;;2.40;99.90;;;;;;4363897;32;20499;-74
2021/01/04 01:47:00;;;;;;;0.50;0.50;;;2.40;99.90;;;;;;4384332;32;20069;-74
2021/01/04 01:49:34;;;;;;;0.77;0.77;;;2.40;99.90;;;;;;4383603;32;20055;-74
2021/01/04 01:52:32;;;;;;;0.40;0.40;;;2.40;99.90;;;;;;4383815;32;20055;-74
2021/01/04 01:55:37;;;;;;;1.08;0.75;;;2.40;99.90;;;;;;4373254;32;20062;-74
2021/01/04 01:58:20;;;;;;;0.45;0.45;;;2.50;99.90;;;;;;4364051;32;20062;-74
2021/01/04 02:00:53;;;;;;;0.50;0.50;;;2.40;99.90;;;;;;4383288;32;20058;-74
2021/01/04 02:03:31;;;;;;;0.95;0.95;;;2.30;99.90;;;;;;4383668;32;20063;-74
2021/01/04 02:06:19;;;;;;;0.50;0.50;;;2.30;99.90;;;;;;4387511;32;20118;-74
2021/01/04 02:08:51;;;;;;;0.47;0.47;;;2.40;99.90;;;;;;4398948;32;20090;-74
2021/01/04 02:11:42;;;;;;;0.50;0.50;;;2.40;99.90;;;;;;4391912;32;20062;-74
2021/01/04 02:14:15;;;;;;;0.30;0.30;;;2.40;99.90;;;;;;4383204;32;20055;-74
2021/01/04 02:17:06;;;;;;;0.32;0.32;;;2.30;99.90;;;;;;4382866;32;20125;-74
2021/01/04 02:19:47;;;;;;;0.77;0.77;;;2.40;99.90;;;;;;4372912;32;20062;-74
2021/01/04 02:22:43;;;;;;;1.17;0.88;;;2.40;99.90;;;;;;4382536;32;20054;-74
2021/01/04 02:25:09;;;;;;;0.60;0.60;;;2.50;99.90;;;;;;4383740;32;20096;-75
2021/01/04 02:27:40;;;;;;;0.40;0.40;;;2.50;99.90;;;;;;4386775;32;20074;-74
2021/01/04 02:30:06;;;;;;;0.50;0.50;;;2.50;99.90;;;;;;4387101;32;20062;-74
2021/01/04 02:32:32;;;;;;;0.40;0.40;;;2.50;99.90;;;;;;4385955;32;20108;-74
2021/01/04 02:34:58;;;;;;;0.30;0.30;;;2.50;99.90;;;;;;4386187;32;20058;-74
2021/01/04 02:37:25;;;;;;;1.02;0.65;;;2.40;99.90;;;;;;4385537;32;20055;-74
2021/01/04 02:40:05;;;;;;;0.45;0.45;;;2.40;99.90;;;;;;4385375;32;20495;-74
2021/01/04 02:42:34;;;;;;;0.62;0.62;;;2.40;99.90;;;;;;4385776;32;20397;-74
2021/01/04 02:45:07;;;;;;;0.40;0.40;;;2.40;99.90;;;;;;4385546;32;20117;-74
2021/01/04 02:47:49;;;;;;;1.12;0.73;;;2.40;99.90;;;;;;4386433;32;20512;-74
2021/01/04 02:50:56;;;;;;;1.02;0.82;;;2.30;99.90;;;;;;4385642;32;20062;-74
2021/01/04 02:53:47;;;;;;;0.40;0.40;;;2.50;99.90;;;;;;4382441;32;20061;-74
2021/01/04 02:56:23;;;;;;;1.02;0.62;;;2.40;99.90;;;;;;4384806;32;20078;-74
2021/01/04 02:59:27;;;;;;;0.68;0.68;;;2.40;99.90;;;;;;4386667;32;20087;-74
2021/01/04 03:02:02;;;;;;;0.62;0.62;;;2.40;99.90;;;;;;4385544;32;20087;-74
2021/01/04 03:04:28;;;;;;;0.50;0.50;;;2.40;99.90;;;;;;4386507;32;20128;-74
2021/01/04 03:06:58;;;;;;;0.30;0.30;;;2.40;99.90;;;;;;4395740;32;20103;-74
2021/01/04 03:09:27;;;;;;;0.30;0.30;;;2.40;99.90;;;;;;4400196;32;20437;-74
2021/01/04 03:11:53;;;;;;;0.50;0.50;;;2.40;99.90;;;;;;4400396;32;20050;-75
2021/01/04 03:14:45;;;;;;;0.40;0.40;;;2.40;99.90;;;;;;4400658;32;20166;-74
2021/01/04 03:17:21;;;;;;;0.52;0.52;;;2.30;99.90;;;;;;4387585;32;20081;-75
2021/01/04 03:19:50;;;;;;;0.68;0.68;;;2.30;99.90;;;;;;4385167;32;20059;-75
2021/01/04 03:22:16;;;;;;;0.40;0.40;;;2.40;99.90;;;;;;4384666;32;20075;-75
2021/01/04 03:24:47;;;;;;;3.10;1.00;;;2.40;99.90;;;;;;4385177;32;20117;-75
2021/01/04 03:27:18;;;;;;;0.55;0.55;;;2.40;99.90;;;;;;4385448;32;20062;-75
2021/01/04 03:29:43;;;;;;;0.30;0.30;;;2.40;99.90;;;;;;4385002;32;20485;-75
2021/01/04 03:32:09;;;;;;;0.40;0.40;;;2.40;99.90;;;;;;4385233;32;20063;-75
2021/01/04 03:34:34;;;;;;;0.30;0.30;;;2.40;99.90;;;;;;4385135;32;20079;-75
2021/01/04 03:37:00;;;;;;;0.40;0.40;;;2.50;99.90;;;;;;4385375;32;20135;-75
2021/01/04 03:39:28;;;;;;;0.75;0.75;;;2.50;99.90;;;;;;4384906;32;20531;-75
2021/01/04 03:41:56;;;;;;;2.08;1.50;;;2.50;99.90;;;;;;4385204;32;20059;-75
2021/01/04 03:44:23;;;;;;;0.85;0.50;;;2.50;99.90;;;;;;4384771;32;20094;-75
2021/01/04 03:46:48;;;;;;;0.50;0.50;;;2.50;99.90;;;;;;4385495;32;20113;-75
2021/01/04 03:49:14;;;;;;;0.40;0.40;;;2.50;99.90;;;;;;4385892;32;20102;-75
2021/01/04 03:51:39;;;;;;;0.30;0.30;;;2.50;99.90;;;;;;4384812;32;20179;-75
2021/01/04 03:54:05;;;;;;;0.57;0.57;;;2.50;99.90;;;;;;4383743;32;20063;-74
2021/01/04 03:56:31;;;;;;;0.40;0.40;;;2.50;99.90;;;;;;4384644;32;20067;-75
2021/01/04 03:58:56;;;;;;;0.40;0.40;;;2.50;99.90;;;;;;4385430;32;20442;-74
2021/01/04 04:01:22;;;;;;;0.50;0.50;;;2.50;99.90;;;;;;4384647;32;20090;-75
2021/01/04 04:03:47;;;;;;;0.30;0.30;;;2.50;99.90;;;;;;4384567;32;20058;-75
2021/01/04 04:06:13;;;;;;;0.35;0.35;;;2.50;99.90;;;;;;4390376;32;20536;-75
2021/01/04 04:08:40;;;;;;;0.40;0.40;;;2.50;99.90;;;;;;4400198;32;20100;-75
2021/01/04 04:11:06;;;;;;;0.52;0.52;;;2.50;99.90;;;;;;4394662;32;20070;-75
2021/01/04 04:13:32;;;;;;;0.40;0.40;;;2.50;99.90;;;;;;4385276;32;20082;-75
2021/01/04 04:15:57;;;;;;;0.40;0.37;;;2.50;99.90;;;;;;4384969;32;20079;-75
2021/01/04 04:18:23;;;;;;;0.30;0.30;;;2.50;99.90;;;;;;4393320;32;20113;-75
2021/01/04 04:20:49;;;;;;;0.30;0.30;;;2.50;99.90;;;;;;4399267;32;20471;-75
2021/01/04 04:23:15;;;;;;;0.37;0.37;;;2.50;99.90;;;;;;4399817;32;20055;-75
2021/01/04 04:25:40;;;;;;;0.43;0.43;;;2.40;99.90;;;;;;4399696;32;20405;-75
2021/01/04 04:28:06;;;;;;;0.55;0.55;;;2.40;99.90;;;;;;4399636;32;20146;-75
2021/01/04 04:30:31;;;;;;;0.40;0.40;;;2.40;99.90;;;;;;4399324;32;20519;-75
2021/01/04 04:32:58;;;;;;;0.50;0.50;;;2.40;99.90;;;;;;4399913;32;20408;-75
2021/01/04 04:35:25;;;;;;;0.60;0.60;;;2.50;99.90;;;;;;4399549;32;20085;-75
2021/01/04 04:37:50;;;;;;;0.40;0.40;;;2.50;99.90;;;;;;4399403;32;20069;-75
2021/01/04 04:40:20;;;;;;;0.40;0.40;;;2.50;99.90;;;;;;4398676;32;20522;-75
2021/01/04 04:42:46;;;;;;;0.47;0.47;;;2.40;99.90;;;;;;4399698;32;20059;-75
2021/01/04 04:45:17;;;;;;;0.30;0.30;;;2.40;99.90;;;;;;4399349;32;20066;-75
2021/01/04 04:48:22;;;;;;;0.55;0.55;;;2.40;99.90;;;;;;4399966;32;20073;-75
2021/01/04 04:51:20;;;;;;;0.50;0.50;;;2.40;99.90;;;;;;4379256;32;20074;-75
2021/01/04 04:53:58;;;;;;;0.50;0.50;;;2.40;99.90;;;;;;4388155;32;20079;-75
2021/01/04 04:57:03;;;;;;;1.17;0.77;;;2.40;99.90;;;;;;4399042;32;20066;-75
2021/01/04 04:59:50;;;;;;;0.60;0.60;;;2.30;99.90;;;;;;4379198;32;20136;-75
2021/01/04 05:02:48;;;;;;;0.50;0.50;;;2.40;99.90;;;;;;4387747;32;20065;-75
2021/01/04 05:05:36;;;;;;;0.40;0.40;;;2.40;99.90;;;;;;4389403;32;20070;-75
2021/01/04 05:08:14;;;;;;;0.45;0.45;;;2.40;99.90;;;;;;4373171;32;20062;-75
2021/01/04 05:10:43;;;;;;;0.30;0.30;;;2.40;99.90;;;;;;4386117;32;20451;-75
2021/01/04 05:13:23;;;;;;;0.43;0.43;;;2.40;99.90;;;;;;4398839;32;20057;-75
2021/01/04 05:16:09;;;;;;;0.43;0.43;;;2.40;99.90;;;;;;4399248;32;20116;-75
2021/01/04 05:19:00;;;;;;;0.37;0.37;;;2.40;99.90;;;;;;4388949;32;20433;-75
2021/01/04 05:21:50;;;;;;;0.40;0.40;;;2.40;99.90;;;;;;4383230;32;20066;-75
2021/01/04 05:24:30;;;;;;;0.30;0.30;;;2.30;99.90;;;;;;4383986;32;20063;-75
2021/01/04 05:27:13;;;;;;;0.40;0.40;;;2.40;99.90;;;;;;4384201;32;20051;-75
2021/01/04 05:30:00;;;;;;;0.35;0.35;;;2.40;99.90;;;;;;4383962;32;20071;-74
2021/01/04 05:32:47;;;;;;;0.52;0.52;;;2.40;99.90;;;;;;4372988;32;20063;-75
2021/01/04 05:35:16;;;;;;;0.52;0.52;;;2.40;99.90;;;;;;4372218;32;20071;-74
2021/01/04 05:38:01;;;;;;;0.52;0.52;;;2.40;99.90;;;;;;4384023;32;20508;-75
2021/01/04 05:40:39;;;;;;;0.40;0.40;;;2.40;99.90;;;;;;4383183;32;20074;-75
2021/01/04 05:43:12;;;;;;;0.40;0.40;;;2.40;99.90;;;;;;4383573;32;20067;-75
2021/01/04 05:45:46;;;;;;;0.30;0.30;;;2.40;99.90;;;;;;4383920;32;20469;-75
2021/01/04 05:48:17;;;;;;;0.60;0.60;;;2.40;99.90;;;;;;4383581;32;20070;-75
2021/01/04 05:50:54;;;;;;;0.40;0.40;;;2.40;99.90;;;;;;4383377;32;20525;-75
2021/01/04 05:53:20;;;;;;;0.40;0.40;;;2.40;99.90;;;;;;4383448;32;20062;-75
2021/01/04 05:55:53;;;;;;;0.43;0.43;;;2.40;99.90;;;;;;4383696;32;20067;-75
2021/01/04 05:58:21;;;;;;;0.43;0.43;;;2.40;99.90;;;;;;4384180;32;20059;-75
2021/01/04 06:00:46;;;;;;;0.62;0.62;;;2.40;99.90;;;;;;4386606;32;20508;-75
2021/01/04 06:03:15;;;;;;;0.45;0.45;;;2.40;99.90;;;;;;4398244;32;20061;-75
2021/01/04 06:05:41;;;;;;;0.30;0.30;;;2.40;99.90;;;;;;4414599;32;20112;-75
2021/01/04 06:08:20;;;;;;;0.30;0.30;;;2.30;99.90;;;;;;4399579;32;20464;-75
2021/01/04 06:10:45;;;;;;;1.08;0.88;;;2.30;99.90;;;;;;4389037;32;20384;-75
2021/01/04 06:13:14;;;;;;;0.30;0.30;;;2.40;99.90;;;;;;4401123;32;20078;-75
2021/01/04 06:15:40;;;;;;;0.45;0.45;;;2.30;99.90;;;;;;4401343;32;20054;-75
2021/01/04 06:18:13;;;;;;;0.32;0.32;;;2.30;99.90;;;;;;4401525;32;20572;-75
2021/01/04 06:20:44;;;;;;;0.25;0.25;;;2.20;99.90;;;;;;4400781;32;20508;-75
2021/01/04 06:23:21;;;;;;;0.30;0.30;;;2.10;99.90;;;;;;4400916;32;20078;-75
2021/01/04 06:25:54;;;;;;;0.30;0.30;;;2.10;99.90;;;;;;4400777;32;20074;-74
2021/01/04 06:28:19;;;;;;;0.62;0.62;;;2.00;99.90;;;;;;4401284;32;20066;-75
2021/01/04 06:30:45;;;;;;;0.32;0.32;;;2.00;99.90;;;;;;4402017;32;20117;-75
2021/01/04 06:33:19;;;;;;;0.32;0.32;;;2.10;99.90;;;;;;4401644;32;20425;-74
2021/01/04 06:35:45;;;;;;;0.40;0.40;;;2.10;99.90;;;;;;4400889;32;20069;-74
2021/01/04 06:38:32;;;;;;;0.40;0.40;;;2.10;99.90;;;;;;4402021;32;20058;-75
2021/01/04 06:41:13;;;;;;;0.40;0.40;;;2.20;99.90;;;;;;4389318;32;20122;-75
2021/01/04 06:43:38;;;;;;;0.43;0.43;;;2.20;99.90;;;;;;4400756;32;20070;-75
2021/01/04 06:46:44;;;;;;;1.27;1.15;;;2.20;99.90;;;;;;4400780;32;20082;-75
2021/01/04 06:49:18;;;;;;;0.30;0.30;;;2.20;99.90;;;;;;4381665;32;20062;-75
2021/01/04 06:52:05;;;;;;;0.30;0.30;;;2.20;99.90;;;;;;4400690;32;20413;-74
2021/01/04 06:54:44;;;;;;;0.30;0.30;;;2.30;99.90;;;;;;4389131;32;20070;-75
2021/01/04 06:57:40;;;;;;;0.40;0.40;;;2.30;99.90;;;;;;4396500;32;20067;-75
2021/01/04 07:00:26;;;;;;;0.40;0.40;;;2.30;99.90;;;;;;4374166;32;20074;-75
2021/01/04 07:03:08;;;;;;;0.40;0.40;;;2.30;99.90;;;;;;4396949;32;20070;-75
2021/01/04 07:06:10;;;;;;;0.32;0.32;;;2.30;99.90;;;;;;4400065;32;20070;-75
2021/01/04 07:09:05;;;;;;;0.40;0.40;;;2.30;99.90;;;;;;4383701;32;20078;-75
2021/01/04 07:11:47;;;;;;;0.40;0.40;;;2.30;99.90;;;;;;4380541;32;20074;-75
2021/01/04 07:14:52;;;;;;;1.33;1.10;;;2.40;99.90;;;;;;4393180;32;20520;-75
2021/01/04 07:17:24;;;;;;;0.50;0.45;;;2.30;99.90;;;;;;4377144;32;20124;-74
2021/01/04 07:20:18;;;;;;;1.85;1.55;;;2.30;99.90;;;;;;4387960;32;20078;-74
2021/01/04 07:23:08;;;;;;;0.40;0.40;;;2.30;99.90;;;;;;4393183;32;20054;-74
2021/01/04 07:25:51;;;;;;;0.70;0.70;;;2.40;99.90;;;;;;4374402;32;20074;-75
2021/01/04 07:28:33;;;;;;;0.95;0.88;;;2.40;99.90;;;;;;4395922;32;20066;-74
2021/01/04 07:31:04;;;;;;;0.40;0.40;;;2.40;99.90;;;;;;4400266;32;20077;-74
2021/01/04 07:33:39;;;;;;;0.62;0.62;;;2.30;99.90;;;;;;4387933;32;20071;-74
2021/01/04 07:36:45;;;;;;;0.30;0.30;;;2.40;99.90;;;;;;4385465;32;20079;-74
2021/01/04 07:39:45;;;;;;;0.30;0.30;;;2.40;99.90;;;;;;4385425;32;20551;-74
2021/01/04 07:42:46;;;;;;;0.40;0.40;;;2.40;99.90;;;;;;4397269;32;20469;-74
2021/01/04 07:45:13;;;;;;;;;;;2.40;99.90;;;;;;4373730;32;20066;-74
2021/01/04 07:48:04;;;;;;;0.30;0.30;;;2.30;99.90;;;;;;4391017;32;19949;-74
2021/01/04 07:51:06;;;;;;;0.65;0.65;;;2.30;99.90;;;;;;4388242;32;20069;-74
2021/01/04 07:53:43;;;;;;;0.95;0.88;;;2.40;99.90;;;;;;4376850;32;20156;-74
2021/01/04 07:56:24;;;;;;;0.30;0.30;;;2.40;99.90;;;;;;4385907;32;20418;-74
2021/01/04 07:59:27;;;;;;;3.60;0.88;;;2.30;99.90;;;;;;4398654;32;20117;-74
2021/01/04 08:02:27;;;;;;;0.30;0.30;;;2.30;99.90;;;;;;4389159;32;20062;-74
2021/01/04 08:05:13;;;;;;;0.30;0.30;;;2.40;99.90;;;;;;4388271;32;20069;-74
2021/01/04 08:08:18;;;;;;;0.50;0.50;;;2.40;99.90;;;;;;4394802;32;20126;-74
2021/01/04 08:11:05;;;;;;;0.40;0.40;;;2.40;99.90;;;;;;4376007;32;20074;-74
2021/01/04 08:14:10;;;;;;;0.70;0.70;;;2.30;99.90;;;;;;4389113;32;20065;-74
2021/01/04 08:16:44;;;;;;;0.40;0.40;;;2.30;99.90;;;;;;4379145;32;20082;-74
2021/01/04 08:19:13;;;;;;;4.65;0.98;;;2.30;99.90;;;;;;4386600;32;20162;-74
2021/01/04 08:22:09;;;;;;;0.57;0.57;;;2.30;99.90;;;;;;4391358;32;20062;-74
2021/01/04 08:24:41;;;;;;;0.90;0.65;;;2.30;99.90;;;;;;4399360;32;20078;-74
2021/01/04 08:27:46;;;;;;;0.32;0.32;;;2.40;99.90;;;;;;4389546;32;20489;-74
2021/01/04 08:30:26;;;;;;;0.40;0.40;;;2.40;99.90;;;;;;4373571;32;20113;-74
2021/01/04 08:33:04;;;;;;;0.60;0.60;;;2.40;99.90;;;;;;4397983;32;20070;-74
2021/01/04 08:35:35;;;;;;;1.17;1.08;;;2.40;99.90;;;;;;4400028;32;20058;-74
2021/01/04 08:38:20;;;;;;;;;;;2.40;99.90;;;;;;4385296;32;20129;-74
2021/01/04 08:42:33;;;;;;;0.70;0.62;;;2.40;99.90;;;;;;4476353;32;83853;-55
2021/01/04 08:45:07;;;;;;;1.00;0.75;;;2.40;99.90;;;;;;4453461;32;20065;-53
2021/01/04 08:47:52;;;;;;;0.47;0.47;;;2.40;99.90;;;;;;4443839;32;20061;-53
2021/01/04 08:50:35;;;;;;;2.40;0.73;;;2.40;99.90;;;;;;4443022;32;20135;-54
2021/01/04 08:53:19;;;;;;;1.10;0.80;;;2.40;99.90;;;;;;4441800;32;20068;-57
2021/01/04 08:55:44;;;;;;;0.50;0.50;;;2.40;99.90;;;;;;4454008;32;20068;-53
2021/01/04 08:58:21;;;;;;;0.50;0.50;;;2.40;99.90;;;;;;4456758;32;20081;-56
2021/01/04 09:01:08;;;;;;;0.60;0.60;;;2.40;99.90;;;;;;4456135;32;20076;-53
2021/01/04 09:03:35;;;;;;;0.82;0.80;;;2.30;99.90;;;;;;4455103;32;20064;-52
2021/01/04 09:06:11;;;;;;;0.43;0.43;;;2.40;99.90;;;;;;4454298;32;20061;-54
2021/01/04 09:08:45;;;;;;;0.50;0.50;;;2.40;99.90;;;;;;4427989;32;20458;-55
2021/01/04 09:11:12;;;;;;;0.55;0.55;;;2.40;99.90;;;;;;4447333;32;20072;-52
2021/01/04 09:13:39;;;;;;;3.62;0.70;;;2.40;99.90;;;;;;4457413;32;20123;-56
2021/01/04 09:16:29;;;;;;;1.40;1.30;;;2.40;99.90;;;;;;4443255;32;20151;-56
2021/01/04 09:19:09;;;;;;;5.13;1.23;;;2.50;99.90;;;;;;4443992;32;20064;-55
2021/01/04 09:21:40;;;;;;;1.05;0.80;;;2.40;99.90;;;;;;4427251;32;20053;-56
2021/01/04 09:24:23;;;;;;;0.60;0.60;;;2.40;99.90;;;;;;4441490;32;20558;-54
2021/01/04 09:26:54;;;;;;;0.60;0.55;;;2.40;99.90;;;;;;4441144;32;20127;-52
2021/01/04 09:29:25;;;;;;;1.62;1.52;;;2.40;99.90;;;;;;4440267;32;20057;-55
2021/01/04 09:31:55;;;;;;;0.73;0.73;;;2.40;99.90;;;;;;4443215;32;20077;-56
2021/01/04 09:34:20;;;;;;;0.65;0.65;;;2.40;99.90;;;;;;4440513;32;20058;-55
2021/01/04 09:36:46;;;;;;;0.50;0.50;;;2.40;99.90;;;;;;4441040;32;20127;-54
2021/01/04 09:39:14;;;;;;;0.40;0.40;;;2.40;99.90;;;;;;4442155;32;20122;-53
2021/01/04 09:41:42;;;;;;;0.30;0.30;;;2.40;99.90;;;;;;4429707;32;20123;-54
2021/01/04 09:44:10;;;;;;;4.57;1.60;;;2.40;99.90;;;;;;4443295;32;20461;-54
2021/01/04 09:46:43;;;;;;;0.50;0.50;;;2.40;99.90;;;;;;4447164;32;20065;-53
2021/01/04 09:49:16;;;;;;;0.65;0.65;;;2.40;99.90;;;;;;4439956;32;20069;-53
2021/01/04 09:51:49;;;;;;;0.40;0.40;;;2.40;99.90;;;;;;4449136;32;20494;-53
2021/01/04 09:54:21;;;;;;;0.50;0.50;;;2.50;99.90;;;;;;4439983;32;20085;-55
2021/01/04 09:56:49;;;;;;;0.60;0.60;;;2.50;99.90;;;;;;4440865;32;20076;-55
2021/01/04 09:59:22;;;;;;;0.70;0.70;;;2.40;99.90;;;;;;4429649;32;20065;-57
2021/01/04 10:01:52;;;;;;;0.30;0.30;;;2.40;99.90;;;;;;4431979;32;20073;-56
2021/01/04 10:04:31;;;;;;;0.57;0.57;;;2.50;99.90;;;;;;4443713;32;20108;-54
2021/01/04 10:06:59;;;;;;;0.55;0.55;;;2.40;99.90;;;;;;4430705;32;20459;-54
2021/01/04 10:09:29;;;;;;;0.57;0.57;;;2.40;99.90;;;;;;4430889;32;20061;-52
2021/01/04 10:11:54;;;;;;;0.50;0.50;;;2.40;99.90;;;;;;4436713;32;20077;-54
2021/01/04 10:14:20;;;;;;;0.50;0.50;;;2.40;99.90;;;;;;4436542;32;20069;-53
2021/01/04 10:16:51;;;;;;;0.50;0.50;;;2.40;99.90;;;;;;4436924;32;20076;-54
2021/01/04 10:19:40;;;;;;;1.20;1.12;;;2.40;99.90;;;;;;4439203;32;20065;-55
2021/01/04 10:22:09;;;;;;;0.30;0.30;;;2.40;99.90;;;;;;4430265;32;20093;-52
2021/01/04 10:24:57;;;;;;;4.90;1.10;;;2.40;99.90;;;;;;4431342;32;20073;-54
2021/01/04 10:27:25;;;;;;;0.50;0.50;;;2.50;99.90;;;;;;4431343;32;20123;-56
2021/01/04 10:29:53;;;;;;;0.60;0.60;;;2.50;99.90;;;;;;4431687;32;20073;-53
2021/01/04 10:32:25;;;;;;;0.52;0.52;;;2.50;99.90;;;;;;4430887;32;20086;-53
2021/01/04 10:34:52;;;;;;;1.33;0.85;;;2.40;99.90;;;;;;4432002;32;20057;-53
2021/01/04 10:37:41;;;;;;;0.60;0.60;;;2.40;99.90;;;;;;4443419;32;20561;-57
2021/01/04 10:40:12;;;;;;;0.40;0.40;;;2.50;99.90;;;;;;4444505;32;20507;-55
2021/01/04 10:42:39;;;;;;;0.85;0.85;;;2.50;99.90;;;;;;4432419;32;20073;-53
2021/01/04 10:45:10;;;;;;;0.70;0.62;;;2.50;99.90;;;;;;4445591;32;20068;-56
2021/01/04 10:47:44;;;;;;;0.52;0.52;;;2.50;99.90;;;;;;4446834;32;20060;-53
2021/01/04 10:50:15;;;;;;;0.40;0.40;;;2.50;99.90;;;;;;4445974;32;20073;-53
2021/01/04 10:52:41;;;;;;;0.40;0.40;;;2.50;99.90;;;;;;4434299;32;20494;-57
2021/01/04 10:55:24;;;;;;;0.70;0.70;;;2.50;99.90;;;;;;4445847;32;20065;-53
2021/01/04 10:57:53;;;;;;;3.37;2.15;;;2.50;99.90;;;;;;4432891;32;20070;-52
2021/01/04 11:00:25;;;;;;;1.05;1.05;;;2.50;99.90;;;;;;4430346;32;20073;-56
2021/01/04 11:02:54;;;;;;;0.68;0.68;;;2.50;99.90;;;;;;4432835;32;20078;-58
2021/01/04 11:05:33;;;;;;;0.50;0.50;;;2.40;99.90;;;;;;4431045;32;20404;-57
2021/01/04 11:08:09;;;;;;;0.50;0.50;;;2.50;99.90;;;;;;4435988;32;20077;-56
2021/01/04 11:10:35;;;;;;;1.52;1.17;;;2.50;99.90;;;;;;4428690;32;20538;-53
2021/01/04 11:13:00;;;;;;;1.65;1.25;;;2.40;99.90;;;;;;4434582;32;20160;-56
2021/01/04 11:15:30;;;;;;;1.25;1.15;;;2.40;99.90;;;;;;4435182;32;20455;-54
2021/01/04 11:17:59;;;;;;;0.40;0.40;;;2.40;99.90;;;;;;4431597;32;20069;-58
2021/01/04 11:20:24;;;;;;;0.77;0.77;;;2.40;99.90;;;;;;4432921;32;20089;-55
2021/01/04 11:23:10;;;;;;;0.30;0.30;;;2.40;99.90;;;;;;4436877;32;20057;-58
2021/01/04 11:25:35;;;;;;;20.58;2.20;;;2.40;99.90;;;;;;4434377;32;20065;-59
2021/01/04 11:28:02;;;;;;;0.60;0.60;;;2.40;99.90;;;;;;4436798;32;20065;-59
2021/01/04 11:30:29;;;;;;;1.40;1.10;;;2.40;99.90;;;;;;4439626;32;20527;-57
2021/01/04 11:33:00;;;;;;;0.93;0.93;;;2.40;99.90;;;;;;4428801;32;20177;-59
2021/01/04 11:35:28;;;;;;;0.52;0.52;;;2.50;99.90;;;;;;4429970;32;20080;-57
2021/01/04 11:37:54;;;;;;;0.70;0.70;;;2.50;99.90;;;;;;4429038;32;20145;-59
2021/01/04 11:40:20;;;;;;;0.85;0.85;;;2.50;99.90;;;;;;4432956;32;20081;-59
2021/01/04 11:42:46;;;;;;;0.52;0.52;;;2.50;99.90;;;;;;4429785;32;20101;-57
2021/01/04 11:45:15;;;;;;;0.73;0.73;;;2.40;99.90;;;;;;4420600;32;20057;-58
2021/01/04 11:47:41;;;;;;;1.40;0.70;;;2.40;99.90;;;;;;4439511;32;20124;-57
2021/01/04 11:50:08;;;;;;;0.50;0.50;;;2.50;99.90;;;;;;4445380;32;20395;-55
2021/01/04 11:52:36;;;;;;;0.82;0.82;;;2.50;99.90;;;;;;4428878;32;20491;-56
2021/01/04 11:55:03;;;;;;;3.00;1.23;;;2.50;99.90;;;;;;4430269;32;20069;-56
2021/01/04 11:57:29;;;;;;;4.28;1.77;;;2.50;99.90;;;;;;4440856;32;20065;-58
2021/01/04 11:59:55;;;;;;;0.77;0.77;;;2.50;99.90;;;;;;4442571;32;20118;-58
2021/01/04 12:02:20;;;;;;;0.40;0.40;;;2.50;99.90;;;;;;4443664;32;20131;-59
2021/01/04 12:04:46;;;;;;;0.82;0.82;;;2.40;99.90;;;;;;4438926;32;20437;-57
2021/01/04 12:07:12;;;;;;;0.60;0.60;;;2.40;99.90;;;;;;4435666;32;20097;-59
2021/01/04 12:09:38;;;;;;;0.65;0.65;;;2.40;99.90;;;;;;4429663;32;20081;-54
2021/01/04 12:12:05;;;;;;;1.15;1.08;;;2.40;99.90;;;;;;4433052;32;20506;-58
2021/01/04 12:14:31;;;;;;;0.60;0.60;;;2.40;99.90;;;;;;4430440;32;20120;-58
2021/01/04 12:17:00;;;;;;;0.60;0.60;;;2.40;99.90;;;;;;4438254;32;20450;-58
2021/01/04 12:19:26;;;;;;;2.72;0.80;;;2.40;99.90;;;;;;4431987;32;20406;-59
2021/01/04 12:21:51;;;;;;;0.77;0.77;;;2.50;99.90;;;;;;4434682;32;20122;-58
2021/01/04 12:24:17;;;;;;;1.65;1.15;;;2.50;99.90;;;;;;4428961;32;20473;-55
2021/01/04 12:26:48;;;;;;;15.18;1.17;;;2.50;99.90;;;;;;4440663;32;20072;-58
2021/01/04 12:29:13;;;;;;;1.05;1.02;;;2.50;99.90;;;;;;4430224;32;20090;-59
2021/01/04 12:31:39;;;;;;;0.45;0.45;;;2.60;99.90;;;;;;4429459;32;20062;-58
2021/01/04 12:34:04;;;;;;;0.70;0.70;;;2.60;99.90;;;;;;4429488;32;20174;-58
2021/01/04 12:36:30;;;;;;;0.65;0.65;;;2.50;99.90;;;;;;4430760;32;20064;-57
2021/01/04 12:38:55;;;;;;;1.50;1.23;;;2.40;99.90;;;;;;4439560;32;20072;-58
2021/01/04 12:41:21;;;;;;;0.85;0.85;;;2.50;99.90;;;;;;4438519;32;20425;-55
2021/01/04 12:43:47;;;;;;;1.85;1.27;;;2.40;99.90;;;;;;4428707;32;20557;-58
2021/01/04 12:46:13;;;;;;;0.47;0.47;;;2.40;99.90;;;;;;4429291;32;20112;-59
2021/01/04 12:48:39;;;;;;;1.45;1.05;;;2.40;99.90;;;;;;4429512;32;20444;-53
2021/01/04 12:51:08;;;;;;;0.40;0.40;;;2.40;99.90;;;;;;4427764;32;20393;-57
2021/01/04 12:53:33;;;;;;;32.15;1.62;;;2.40;99.90;;;;;;4416660;32;20483;-58
2021/01/04 12:55:59;;;;;;;0.85;0.85;;;2.40;99.90;;;;;;4429296;32;20111;-59
2021/01/04 12:58:25;;;;;;;1.20;0.77;;;2.50;99.90;;;;;;4441491;32;20069;-59
2021/01/04 13:00:52;;;;;;;0.50;0.50;;;2.50;99.90;;;;;;4442593;32;20065;-59
2021/01/04 13:03:17;;;;;;;0.50;0.50;;;2.50;99.90;;;;;;4434281;32;20513;-59
2021/01/04 13:05:43;;;;;;;0.77;0.77;;;2.40;99.90;;;;;;4440326;32;20057;-57
2021/01/04 13:08:09;;;;;;;0.85;0.85;;;2.40;99.90;;;;;;4432916;32;20069;-58
2021/01/04 13:10:34;;;;;;;0.68;0.68;;;2.40;99.90;;;;;;4431674;32;20101;-58
2021/01/04 13:13:00;;;;;;;0.50;0.50;;;2.40;99.90;;;;;;4429482;32;20085;-57
2021/01/04 13:15:25;;;;;;;0.60;0.60;;;2.40;99.90;;;;;;4441916;32;20522;-58
2021/01/04 13:17:51;;;;;;;0.50;0.50;;;2.40;99.90;;;;;;4437297;32;20115;-58
2021/01/04 13:20:17;;;;;;;0.40;0.40;;;2.50;99.90;;;;;;4439127;32;20073;-59
2021/01/04 13:22:42;;;;;;;0.52;0.52;;;2.50;99.90;;;;;;4437927;32;20156;-54
2021/01/04 13:25:10;;;;;;;1.45;1.17;;;2.50;99.90;;;;;;4439542;32;20064;-59
2021/01/04 13:27:35;;;;;;;1.30;1.08;;;2.50;99.90;;;;;;4439194;32;20465;-59
2021/01/04 13:30:01;;;;;;;0.70;0.70;;;2.50;99.90;;;;;;4430888;32;20086;-57
2021/01/04 13:32:26;;;;;;;0.77;0.77;;;2.40;99.90;;;;;;4433499;32;20121;-58
2021/01/04 13:34:52;;;;;;;0.85;0.82;;;2.50;99.90;;;;;;4433128;32;20148;-59
2021/01/04 13:37:18;;;;;;;0.40;0.40;;;2.50;99.90;;;;;;4436349;32;20187;-59
2021/01/04 13:39:46;;;;;;;0.95;0.95;;;2.50;99.90;;;;;;4435411;32;20062;-59
2021/01/04 13:42:11;;;;;;;2.92;0.93;;;2.50;99.90;;;;;;4436867;32;20073;-59